Ever Diamond — 3FQS8 — position and weather

sailwx.info

Track history (hours):
 
Tides and Currents Weather Stations Pressure Air Temp Water Temp Dewpoint Dewpoint Depression Visibility Wind Speed Wind Dir Waves Ship Positions

Ever Diamond

Last reported at 2016-May-04 07:31 UTC. Time now 2016-May-06 11:13 UTC.
Position N 34°48' E 140°29'.

Type: Ship (hazmat cat D). MMSI: 354893000.

Date/timePositionNaut miles runAvg speedWind from/ knotsBaromVisibWave heightAir tempDewpointWater temp
2016-May-04 07:31N 34°48' E 140°29'1717.8
2016-May-04 06:32N 34°36' E 140°13'90518.0
2016-May-02 04:14N 30°29' E 123°01'1217.0
2016-May-02 03:33N 30°29' E 122°48'3114.9
2016-May-02 01:29N 30°33' E 122°12'8 8.3
2016-May-02 00:33N 30°37' E 122°04'0 0.1
2016-May-01 23:33N 30°37' E 122°04'0 0.1
2016-May-01 22:33N 30°37' E 122°04'0 0.1
2016-May-01 21:33N 30°37' E 122°04'0 0.1
2016-May-01 20:33N 30°37' E 122°04'0 0.1
2016-May-01 19:33N 30°37' E 122°04'0 0.1
2016-May-01 18:33N 30°37' E 122°04'0 0.1
2016-May-01 17:33N 30°37' E 122°04'0 0.1
2016-May-01 16:33N 30°37' E 122°04'0 0.1
2016-May-01 15:33N 30°37' E 122°04'5 5.1
2016-May-01 14:33N 30°34' E 122°09'9 7.9
2016-May-01 13:24N 30°33' E 122°20'21 2.9
2016-May-01 06:18N 30°26' E 122°43'0 0.0
2016-Apr-30 15:16N 30°26' E 122°43'0 0.1
2016-Apr-30 14:28N 30°26' E 122°43'0 0.0
2016-Apr-30 12:13N 30°26' E 122°43'0 0.1
2016-Apr-30 11:28N 30°26' E 122°43'5 6.0
2016-Apr-30 10:33N 30°24' E 122°49'1615.7
2016-Apr-30 09:33N 30°14' E 123°03'1514.9
2016-Apr-30 08:33N 30°01' E 122°55'1616.1
2016-Apr-30 07:32N 29°49' E 122°42'1615.7
2016-Apr-30 06:33N 29°44' E 122°25'1111.1
2016-Apr-30 05:33N 29°49' E 122°14'11 5.4
2016-Apr-30 03:33N 29°53' E 122°02'0 0.2
2016-Apr-30 02:33N 29°53' E 122°03'0 0.1
2016-Apr-30 01:32N 29°53' E 122°02'0 0.1
2016-Apr-30 00:34N 29°54' E 122°03'0 0.1
2016-Apr-29 23:33N 29°53' E 122°03'0 0.1
2016-Apr-29 22:33N 29°53' E 122°03'0 0.1
2016-Apr-29 21:33N 29°54' E 122°02'0 0.1
2016-Apr-29 20:33N 29°53' E 122°02'0 0.1
2016-Apr-29 19:33N 29°53' E 122°03'0 0.1
2016-Apr-29 18:33N 29°54' E 122°02'2 1.8
2016-Apr-29 17:33N 29°55' E 122°04'7 6.7
2016-Apr-29 16:33N 29°53' E 122°11'1211.8
2016-Apr-29 15:33N 29°45' E 122°20'1010.3
2016-Apr-29 14:34N 29°38' E 122°30'2 2.0
2016-Apr-29 13:33N 29°36' E 122°31'1111.4
2016-Apr-29 12:33N 29°25' E 122°30'1414.5
2016-Apr-29 11:33N 29°11' E 122°31'44216.4
2016-Apr-28 08:32N 23°11' E 117°45'6716.2
2016-Apr-28 04:23N 22°33' E 116°44'12016.4
2016-Apr-27 21:03N 22°10' E 114°37'3111.8
2016-Apr-27 18:24N 22°34' E 114°15'0 0.1
2016-Apr-27 17:30N 22°34' E 114°15'0 0.1
2016-Apr-27 16:30N 22°34' E 114°15'0 0.0
2016-Apr-27 15:18N 22°34' E 114°15'0 0.0
2016-Apr-27 14:34N 22°34' E 114°15'0 0.1
2016-Apr-27 13:33N 22°34' E 114°16'0 0.1
2016-Apr-27 12:33N 22°34' E 114°15'0 0.1
2016-Apr-27 11:33N 22°34' E 114°15'0 0.1
2016-Apr-27 10:21N 22°34' E 114°15'21 7.6
2016-Apr-27 07:33N 22°17' E 114°28'1615.5
2016-Apr-27 06:33N 22°07' E 114°15'1312.9
2016-Apr-27 05:33N 22°16' E 114°06'4 3.6
2016-Apr-27 04:32N 22°20' E 114°08'0 0.1
2016-Apr-27 03:29N 22°20' E 114°08'0 0.1
2016-Apr-27 02:29N 22°20' E 114°08'0 0.1
2016-Apr-27 01:29N 22°20' E 114°08'0 0.0
2016-Apr-27 00:23N 22°20' E 114°08'0 0.1
2016-Apr-26 23:32N 22°20' E 114°08'0 0.0
2016-Apr-26 22:29N 22°20' E 114°08'0 0.0
2016-Apr-26 21:32N 22°20' E 114°08'0 0.1
2016-Apr-26 20:32N 22°20' E 114°08'0 0.1
2016-Apr-26 19:32N 22°20' E 114°08'0 0.1
2016-Apr-26 18:32N 22°20' E 114°08'0 0.0
2016-Apr-26 17:29N 22°20' E 114°08'0 0.0
2016-Apr-26 16:32N 22°20' E 114°08'0 0.1
2016-Apr-26 15:29N 22°20' E 114°08'0 0.1
2016-Apr-26 14:32N 22°20' E 114°08'0 0.1
2016-Apr-26 13:29N 22°20' E 114°08'0 0.2
2016-Apr-26 12:33N 22°20' E 114°08'2 2.3
2016-Apr-26 11:33N 22°19' E 114°06'1312.5
2016-Apr-26 10:33N 22°09' E 114°14'11 9.5
2016-Apr-26 09:24N 22°07' E 114°26'5 4.4
2016-Apr-26 08:20N 22°08' E 114°31'30616.0
2016-Apr-25 13:17N 22°29' E 120°01'1216.0
2016-Apr-25 12:33N 22°33' E 120°13'7 0.3
2016-Apr-24 11:15N 22°33' E 120°20'4 5.1
2016-Apr-24 10:33N 22°32' E 120°16'7 6.7
2016-Apr-24 09:33N 22°26' E 120°15'0 0.5
2016-Apr-24 08:29N 22°25' E 120°15'  
Track history (hours):
 
Tides and Currents Weather Stations Pressure Air Temp Water Temp Dewpoint Dewpoint Depression Visibility Wind Speed Wind Dir Waves Ship Positions

Ever Diamond

Last reported at 2016-May-04 07:31 UTC. Time now 2016-May-06 11:13 UTC.
Position N 34°48' E 140°29'.

Type: Ship (hazmat cat D). MMSI: 354893000.

Date/timePositionNaut miles runAvg speedWind from/ knotsBaromVisibWave heightAir tempDewpointWater temp
2016-May-04 07:31N 34°48' E 140°29'1717.8
2016-May-04 06:32N 34°36' E 140°13'90518.0
2016-May-02 04:14N 30°29' E 123°01'1217.0
2016-May-02 03:33N 30°29' E 122°48'3114.9
2016-May-02 01:29N 30°33' E 122°12'8 8.3
2016-May-02 00:33N 30°37' E 122°04'0 0.1
2016-May-01 23:33N 30°37' E 122°04'0 0.1
2016-May-01 22:33N 30°37' E 122°04'0 0.1
2016-May-01 21:33N 30°37' E 122°04'0 0.1
2016-May-01 20:33N 30°37' E 122°04'0 0.1
2016-May-01 19:33N 30°37' E 122°04'0 0.1
2016-May-01 18:33N 30°37' E 122°04'0 0.1
2016-May-01 17:33N 30°37' E 122°04'0 0.1
2016-May-01 16:33N 30°37' E 122°04'0 0.1
2016-May-01 15:33N 30°37' E 122°04'5 5.1
2016-May-01 14:33N 30°34' E 122°09'9 7.9
2016-May-01 13:24N 30°33' E 122°20'21 2.9
2016-May-01 06:18N 30°26' E 122°43'0 0.0
2016-Apr-30 15:16N 30°26' E 122°43'0 0.1
2016-Apr-30 14:28N 30°26' E 122°43'0 0.0
2016-Apr-30 12:13N 30°26' E 122°43'0 0.1
2016-Apr-30 11:28N 30°26' E 122°43'5 6.0
2016-Apr-30 10:33N 30°24' E 122°49'1615.7
2016-Apr-30 09:33N 30°14' E 123°03'1514.9
2016-Apr-30 08:33N 30°01' E 122°55'1616.1
2016-Apr-30 07:32N 29°49' E 122°42'1615.7
2016-Apr-30 06:33N 29°44' E 122°25'1111.1
2016-Apr-30 05:33N 29°49' E 122°14'11 5.4
2016-Apr-30 03:33N 29°53' E 122°02'0 0.2
2016-Apr-30 02:33N 29°53' E 122°03'0 0.1
2016-Apr-30 01:32N 29°53' E 122°02'0 0.1
2016-Apr-30 00:34N 29°54' E 122°03'0 0.1
2016-Apr-29 23:33N 29°53' E 122°03'0 0.1
2016-Apr-29 22:33N 29°53' E 122°03'0 0.1
2016-Apr-29 21:33N 29°54' E 122°02'0 0.1
2016-Apr-29 20:33N 29°53' E 122°02'0 0.1
2016-Apr-29 19:33N 29°53' E 122°03'0 0.1
2016-Apr-29 18:33N 29°54' E 122°02'2 1.8
2016-Apr-29 17:33N 29°55' E 122°04'7 6.7
2016-Apr-29 16:33N 29°53' E 122°11'1211.8
2016-Apr-29 15:33N 29°45' E 122°20'1010.3
2016-Apr-29 14:34N 29°38' E 122°30'2 2.0
2016-Apr-29 13:33N 29°36' E 122°31'1111.4
2016-Apr-29 12:33N 29°25' E 122°30'1414.5
2016-Apr-29 11:33N 29°11' E 122°31'44216.4
2016-Apr-28 08:32N 23°11' E 117°45'6716.2
2016-Apr-28 04:23N 22°33' E 116°44'12016.4
2016-Apr-27 21:03N 22°10' E 114°37'3111.8
2016-Apr-27 18:24N 22°34' E 114°15'0 0.1
2016-Apr-27 17:30N 22°34' E 114°15'0 0.1
2016-Apr-27 16:30N 22°34' E 114°15'0 0.0
2016-Apr-27 15:18N 22°34' E 114°15'0 0.0
2016-Apr-27 14:34N 22°34' E 114°15'0 0.1
2016-Apr-27 13:33N 22°34' E 114°16'0 0.1
2016-Apr-27 12:33N 22°34' E 114°15'0 0.1
2016-Apr-27 11:33N 22°34' E 114°15'0 0.1
2016-Apr-27 10:21N 22°34' E 114°15'21 7.6
2016-Apr-27 07:33N 22°17' E 114°28'1615.5
2016-Apr-27 06:33N 22°07' E 114°15'1312.9
2016-Apr-27 05:33N 22°16' E 114°06'4 3.6
2016-Apr-27 04:32N 22°20' E 114°08'0 0.1
2016-Apr-27 03:29N 22°20' E 114°08'0 0.1
2016-Apr-27 02:29N 22°20' E 114°08'0 0.1
2016-Apr-27 01:29N 22°20' E 114°08'0 0.0
2016-Apr-27 00:23N 22°20' E 114°08'0 0.1
2016-Apr-26 23:32N 22°20' E 114°08'0 0.0
2016-Apr-26 22:29N 22°20' E 114°08'0 0.0
2016-Apr-26 21:32N 22°20' E 114°08'0 0.1
2016-Apr-26 20:32N 22°20' E 114°08'0 0.1
2016-Apr-26 19:32N 22°20' E 114°08'0 0.1
2016-Apr-26 18:32N 22°20' E 114°08'0 0.0
2016-Apr-26 17:29N 22°20' E 114°08'0 0.0
2016-Apr-26 16:32N 22°20' E 114°08'0 0.1
2016-Apr-26 15:29N 22°20' E 114°08'0 0.1
2016-Apr-26 14:32N 22°20' E 114°08'0 0.1
2016-Apr-26 13:29N 22°20' E 114°08'0 0.2
2016-Apr-26 12:33N 22°20' E 114°08'2 2.3
2016-Apr-26 11:33N 22°19' E 114°06'1312.5
2016-Apr-26 10:33N 22°09' E 114°14'11 9.5
2016-Apr-26 09:24N 22°07' E 114°26'5 4.4
2016-Apr-26 08:20N 22°08' E 114°31'30616.0
2016-Apr-25 13:17N 22°29' E 120°01'1216.0
2016-Apr-25 12:33N 22°33' E 120°13'7 0.3
2016-Apr-24 11:15N 22°33' E 120°20'4 5.1
2016-Apr-24 10:33N 22°32' E 120°16'7 6.7
2016-Apr-24 09:33N 22°26' E 120°15'0 0.5
2016-Apr-24 08:29N 22°25' E 120°15'  

Dump ship's entire track history